createdAt,value
2019-01-24T00:04:38.751Z,67.02
2019-01-24T00:09:41.226Z,67.17
2019-01-24T00:14:43.696Z,67.05
2019-01-24T00:19:46.221Z,67.24
2019-01-24T00:24:48.641Z,67.18
2019-01-24T00:29:51.105Z,67.21
2019-01-24T00:34:53.560Z,67.11
2019-01-24T00:39:56.014Z,66.85
2019-01-24T00:44:58.467Z,66.78
2019-01-24T00:50:00.921Z,66.94
2019-01-24T00:55:03.386Z,66.93
2019-01-24T01:00:05.856Z,66.93
2019-01-24T01:05:08.316Z,66.95
2019-01-24T01:10:10.779Z,67.00
2019-01-24T01:15:13.225Z,67.00
2019-01-24T01:20:15.698Z,67.02
2019-01-24T01:25:18.146Z,66.97
2019-01-24T01:30:20.628Z,66.68
2019-01-24T01:35:23.078Z,66.37
2019-01-24T01:40:25.531Z,65.90
2019-01-24T01:45:28.072Z,65.63
2019-01-24T01:50:30.527Z,65.36
2019-01-24T01:55:32.994Z,64.99
2019-01-24T02:00:35.445Z,64.69
2019-01-24T02:05:37.904Z,64.26
2019-01-24T02:10:40.353Z,64.36
2019-01-24T02:15:42.808Z,63.99
2019-01-24T02:20:45.266Z,64.01
2019-01-24T02:25:47.717Z,63.28
2019-01-24T02:30:50.168Z,63.34
2019-01-24T02:35:52.631Z,63.55
2019-01-24T02:40:55.080Z,64.00
2019-01-24T02:45:57.534Z,64.06
2019-01-24T02:50:59.989Z,64.01
2019-01-24T02:56:02.444Z,64.08
2019-01-24T03:01:04.890Z,64.03
2019-01-24T03:06:07.352Z,63.98
2019-01-24T03:11:09.832Z,64.28
2019-01-24T03:16:12.293Z,64.52
2019-01-24T03:21:14.785Z,64.77
2019-01-24T03:26:17.258Z,64.37
2019-01-24T03:31:19.724Z,64.87
2019-01-24T03:36:22.185Z,64.64
2019-01-24T03:41:24.641Z,64.73
2019-01-24T03:46:27.106Z,64.70
2019-01-24T03:51:29.568Z,64.71
2019-01-24T03:56:32.021Z,64.82
2019-01-24T04:01:34.500Z,64.33
2019-01-24T04:06:36.955Z,64.86
2019-01-24T04:11:39.414Z,64.72
2019-01-24T04:16:41.850Z,64.64
2019-01-24T04:21:44.321Z,64.32
2019-01-24T04:26:46.795Z,64.32
2019-01-24T04:31:49.249Z,64.12
2019-01-24T04:36:53.447Z,63.59
2019-01-24T04:41:54.163Z,63.41
2019-01-24T04:46:56.780Z,63.71
2019-01-24T04:51:59.229Z,63.84
2019-01-24T04:57:01.709Z,64.22
2019-01-24T05:02:04.159Z,64.30
2019-01-24T05:07:06.609Z,63.88
2019-01-24T05:12:09.072Z,63.90
2019-01-24T05:17:11.541Z,64.17
2019-01-24T05:22:14.123Z,64.26
2019-01-24T05:27:16.574Z,64.20
2019-01-24T05:32:19.035Z,64.50
2019-01-24T05:37:21.495Z,64.62
2019-01-24T05:42:23.960Z,64.67
2019-01-24T05:47:26.428Z,64.98
2019-01-24T05:52:28.898Z,64.97
2019-01-24T05:57:31.355Z,64.88
2019-01-24T06:02:33.818Z,65.19
2019-01-24T06:07:36.283Z,65.58
2019-01-24T06:12:38.729Z,65.55
2019-01-24T06:17:41.206Z,65.69
2019-01-24T06:22:43.669Z,65.78
2019-01-24T06:27:46.121Z,65.56
2019-01-24T06:32:48.590Z,65.69
2019-01-24T06:37:51.084Z,65.95
2019-01-24T06:42:53.566Z,66.20
2019-01-24T06:47:56.021Z,66.13
2019-01-24T06:52:58.479Z,66.33
2019-01-24T06:58:00.992Z,66.08
2019-01-24T07:03:03.448Z,65.89
2019-01-24T07:08:05.922Z,65.72
2019-01-24T07:13:08.388Z,65.82
2019-01-24T07:18:10.860Z,65.47
2019-01-24T07:23:13.442Z,65.03
2019-01-24T07:28:15.887Z,64.65
2019-01-24T07:33:18.481Z,64.52
2019-01-24T07:38:20.950Z,64.59
2019-01-24T07:43:23.399Z,64.45
2019-01-24T07:48:25.850Z,64.00
2019-01-24T07:53:28.300Z,63.53
2019-01-24T07:58:30.757Z,63.56
2019-01-24T08:03:33.200Z,63.89
2019-01-24T08:08:35.678Z,63.64
2019-01-24T08:13:38.136Z,64.19
2019-01-24T08:18:40.593Z,63.50
2019-01-24T08:23:43.057Z,63.22
2019-01-24T08:28:45.507Z,62.80
2019-01-24T08:33:47.968Z,62.77
2019-01-24T08:38:50.421Z,62.46
2019-01-24T08:43:52.877Z,62.50
2019-01-24T08:48:55.342Z,62.35
2019-01-24T08:53:57.807Z,61.79
2019-01-24T08:59:00.280Z,61.27
2019-01-24T09:04:02.757Z,60.79
2019-01-24T09:09:05.222Z,60.81
2019-01-24T09:14:07.806Z,60.94
2019-01-24T09:19:10.250Z,61.16
2019-01-24T09:24:12.711Z,59.77
2019-01-24T09:29:15.177Z,59.57
2019-01-24T09:34:17.634Z,58.87
2019-01-24T09:39:20.119Z,57.97
2019-01-24T09:44:22.557Z,57.69
2019-01-24T09:49:25.025Z,58.64
2019-01-24T09:54:27.455Z,57.88
2019-01-24T09:59:29.917Z,58.33
2019-01-24T10:04:32.380Z,57.96
2019-01-24T10:09:34.832Z,57.91
2019-01-24T10:14:37.293Z,58.43
2019-01-24T10:19:39.753Z,58.25
2019-01-24T10:24:42.214Z,57.63
2019-01-24T10:29:44.678Z,57.86
2019-01-24T10:34:47.136Z,57.10
2019-01-24T10:39:49.593Z,56.42
2019-01-24T10:44:52.059Z,56.69
2019-01-24T10:49:54.539Z,56.53
2019-01-24T10:54:57.148Z,55.94
2019-01-24T10:59:59.615Z,55.60
2019-01-24T11:05:02.096Z,55.35
2019-01-24T11:10:04.550Z,55.70
2019-01-24T11:15:09.864Z,56.02
2019-01-24T11:20:12.263Z,56.04
2019-01-24T11:25:14.730Z,56.45
2019-01-24T11:30:25.969Z,56.16
2019-01-24T11:35:31.145Z,56.06
2019-01-24T11:40:33.615Z,56.59
2019-01-24T11:45:36.082Z,56.45
2019-01-24T11:50:38.551Z,56.51
2019-01-24T11:55:41.049Z,57.39
2019-01-24T12:00:43.516Z,56.62
2019-01-24T12:05:45.979Z,56.59
2019-01-24T12:10:48.432Z,56.09
2019-01-24T12:15:50.910Z,55.55
2019-01-24T12:20:53.365Z,55.14
2019-01-24T12:25:55.855Z,55.42
2019-01-24T12:30:58.331Z,54.94
2019-01-24T12:36:00.795Z,55.25
2019-01-24T12:41:03.262Z,55.63
2019-01-24T12:46:05.716Z,55.42
2019-01-24T12:51:08.180Z,55.84
2019-01-24T12:56:10.684Z,55.61
2019-01-24T13:01:13.152Z,55.16
2019-01-24T13:06:15.667Z,55.25
2019-01-24T13:11:18.146Z,55.52
2019-01-24T13:16:20.629Z,55.43
2019-01-24T13:21:23.103Z,55.23
2019-01-24T13:26:25.592Z,55.58
2019-01-24T13:31:28.069Z,55.52
2019-01-24T13:36:30.565Z,56.04
2019-01-24T13:41:33.039Z,56.42
2019-01-24T13:46:35.521Z,56.37
2019-01-24T13:51:37.980Z,56.71
2019-01-24T13:56:40.466Z,56.70
2019-01-24T14:01:42.955Z,56.83
2019-01-24T14:06:45.430Z,56.97
2019-01-24T14:11:47.935Z,57.13
2019-01-24T14:16:50.426Z,56.94
2019-01-24T14:21:52.892Z,57.58
2019-01-24T14:26:55.368Z,57.43
2019-01-24T14:31:57.959Z,57.53
2019-01-24T14:37:01.000Z,57.34
2019-01-24T14:42:03.468Z,57.53
2019-01-24T14:47:05.928Z,57.99
2019-01-24T14:52:08.436Z,58.56
2019-01-24T14:57:10.926Z,58.91
2019-01-24T15:02:13.413Z,59.19
2019-01-24T15:07:15.890Z,59.26
2019-01-24T15:12:18.363Z,58.75
2019-01-24T15:17:20.838Z,59.13
2019-01-24T15:22:23.340Z,59.45
2019-01-24T15:27:25.789Z,59.26
2019-01-24T15:32:28.278Z,59.45
2019-01-24T15:37:30.747Z,59.57
2019-01-24T15:42:33.237Z,59.87
2019-01-24T15:47:35.723Z,59.91
2019-01-24T15:52:38.213Z,59.84
2019-01-24T15:57:40.689Z,60.24
2019-01-24T16:02:43.159Z,60.09
2019-01-24T16:07:45.661Z,60.76
2019-01-24T16:12:48.124Z,61.11
2019-01-24T16:17:50.587Z,61.70
2019-01-24T16:22:53.093Z,62.18
2019-01-24T16:27:55.613Z,62.30
2019-01-24T16:32:58.047Z,61.98
2019-01-24T16:38:00.525Z,62.11
2019-01-24T16:43:02.990Z,61.90
2019-01-24T16:48:05.566Z,61.85
2019-01-24T16:53:08.039Z,61.87
2019-01-24T16:58:10.514Z,62.48
2019-01-24T17:03:12.987Z,62.62
2019-01-24T17:08:16.725Z,62.75
2019-01-24T17:13:17.948Z,62.80
2019-01-24T17:18:20.402Z,63.39
2019-01-24T17:23:22.888Z,63.27
2019-01-24T17:28:25.351Z,63.66
2019-01-24T17:33:27.847Z,63.62
2019-01-24T17:38:30.336Z,63.96
2019-01-24T17:43:32.803Z,63.62
2019-01-24T17:48:35.313Z,63.73
2019-01-24T17:53:37.796Z,63.75
2019-01-24T17:58:40.282Z,63.54
2019-01-24T18:03:42.753Z,63.71
2019-01-24T18:08:45.292Z,63.97
2019-01-24T18:13:47.788Z,63.75
2019-01-24T18:18:50.262Z,63.61
2019-01-24T18:23:52.750Z,63.80
2019-01-24T18:28:55.256Z,63.65
2019-01-24T18:33:57.734Z,63.79
2019-01-24T18:39:00.226Z,63.90
2019-01-24T18:44:02.707Z,63.87
2019-01-24T18:49:05.220Z,63.96
2019-01-24T18:54:07.697Z,64.13
2019-01-24T18:59:10.189Z,64.13
2019-01-24T19:04:12.675Z,64.29
2019-01-24T19:09:15.186Z,64.28
2019-01-24T19:14:17.665Z,64.65
2019-01-24T19:19:20.151Z,64.63
2019-01-24T19:24:22.687Z,65.00
2019-01-24T19:29:25.183Z,64.88
2019-01-24T19:34:27.818Z,65.13
2019-01-24T19:39:30.318Z,65.33
2019-01-24T19:44:32.850Z,65.41
2019-01-24T19:49:35.317Z,65.61
2019-01-24T19:54:38.375Z,65.54
2019-01-24T19:59:41.978Z,65.73
2019-01-24T20:04:44.509Z,65.74
2019-01-24T20:09:46.981Z,65.63
2019-01-24T20:14:49.468Z,65.75
2019-01-24T20:19:51.970Z,65.94
2019-01-24T20:24:54.458Z,66.11
2019-01-24T20:29:56.944Z,66.26
2019-01-24T20:34:59.432Z,65.89
2019-01-24T20:40:01.941Z,65.77
2019-01-24T20:45:04.436Z,65.95
2019-01-24T20:50:06.898Z,65.92
2019-01-24T20:55:12.307Z,65.89
2019-01-24T21:00:17.829Z,65.96
2019-01-24T21:05:20.310Z,65.92
2019-01-24T21:10:22.779Z,66.11
2019-01-24T21:15:25.271Z,66.05
2019-01-24T21:20:27.761Z,65.90
2019-01-24T21:25:30.247Z,66.11
2019-01-24T21:30:35.360Z,66.07
2019-01-24T21:35:37.821Z,66.10
2019-01-24T21:40:40.401Z,66.20
2019-01-24T21:45:42.864Z,66.09
2019-01-24T21:50:45.345Z,66.23
2019-01-24T21:55:47.883Z,66.16
2019-01-24T22:00:50.365Z,66.26
2019-01-24T22:05:52.863Z,66.11
2019-01-24T22:10:55.341Z,65.95
2019-01-24T22:15:58.166Z,65.70
2019-01-24T22:21:00.626Z,65.72
2019-01-24T22:26:03.102Z,65.83
2019-01-24T22:31:05.573Z,65.47
2019-01-24T22:36:08.046Z,65.34
2019-01-24T22:41:10.508Z,65.36
2019-01-24T22:46:12.969Z,65.18
2019-01-24T22:51:15.452Z,65.37
2019-01-24T22:56:17.938Z,65.20
2019-01-24T23:01:32.208Z,65.21
2019-01-24T23:06:34.709Z,65.20
2019-01-24T23:11:37.152Z,64.94
2019-01-24T23:16:39.632Z,65.01
2019-01-24T23:21:42.072Z,64.77
2019-01-24T23:26:44.558Z,64.76
2019-01-24T23:31:46.991Z,64.37
2019-01-24T23:36:49.452Z,63.98
2019-01-24T23:41:51.893Z,63.60
2019-01-24T23:46:54.351Z,63.06
2019-01-24T23:51:56.965Z,62.78
2019-01-24T23:56:59.421Z,62.60
